createdAt,value
2018-04-26T00:01:27.614Z,25.70
2018-04-26T00:03:55.078Z,30.77
2018-04-26T00:06:22.534Z,33.97
2018-04-26T00:08:50.015Z,26.13
2018-04-26T00:11:17.446Z,19.10
2018-04-26T00:13:44.903Z,26.50
2018-04-26T00:16:12.354Z,20.83
2018-04-26T00:18:40.330Z,23.33
2018-04-26T00:21:07.776Z,24.47
2018-04-26T00:23:35.234Z,29.37
2018-04-26T00:26:02.694Z,27.83
2018-04-26T00:28:30.141Z,25.53
2018-04-26T00:30:57.607Z,22.10
2018-04-26T00:33:25.050Z,27.43
2018-04-26T00:35:52.500Z,24.00
2018-04-26T00:38:19.947Z,19.83
2018-04-26T00:40:48.167Z,24.73
2018-04-26T00:43:15.602Z,12.80
2018-04-26T00:45:43.059Z,25.30
2018-04-26T00:48:10.505Z,17.60
2018-04-26T00:50:37.974Z,29.43
2018-04-26T00:53:05.427Z,16.13
2018-04-26T00:55:32.880Z,28.17
2018-04-26T00:58:00.342Z,31.97
2018-04-26T01:00:27.785Z,19.73
2018-04-26T01:02:55.260Z,18.47
2018-04-26T01:05:22.740Z,23.23
2018-04-26T01:07:50.203Z,29.57
2018-04-26T01:10:17.699Z,28.53
2018-04-26T01:12:45.940Z,21.97
2018-04-26T01:15:13.441Z,20.10
2018-04-26T01:17:41.671Z,19.73
2018-04-26T01:20:09.238Z,29.40
2018-04-26T01:22:36.624Z,20.53
2018-04-26T01:25:04.856Z,22.17
2018-04-26T01:27:32.349Z,19.53
2018-04-26T01:30:00.619Z,26.60
2018-04-26T01:32:28.865Z,23.30
2018-04-26T01:34:56.372Z,22.60
2018-04-26T01:40:30.778Z,23.70
2018-04-26T01:42:58.228Z,20.80
2018-04-26T01:45:25.711Z,22.90
2018-04-26T01:47:53.963Z,26.80
2018-04-26T01:50:22.346Z,28.03
2018-04-26T01:52:49.794Z,39.17
2018-04-26T01:55:17.279Z,24.60
2018-04-26T01:57:45.512Z,25.50
2018-04-26T02:00:12.977Z,20.50
2018-04-26T02:02:40.435Z,17.30
2018-04-26T02:05:08.676Z,20.30
2018-04-26T02:07:36.168Z,22.80
2018-04-26T02:10:03.652Z,26.60
2018-04-26T02:12:31.132Z,22.20
2018-04-26T02:14:58.596Z,24.03
2018-04-26T02:17:26.077Z,21.30
2018-04-26T02:19:53.544Z,22.27
2018-04-26T02:22:21.013Z,22.20
2018-04-26T02:24:48.475Z,22.97
2018-04-26T02:27:16.102Z,23.50
2018-04-26T02:29:43.749Z,21.73
2018-04-26T02:32:11.216Z,40.50
2018-04-26T02:34:39.602Z,25.70
2018-04-26T02:37:07.099Z,22.83
2018-04-26T02:39:34.568Z,19.80
2018-04-26T02:42:02.835Z,21.60
2018-04-26T02:44:30.336Z,23.97
2018-04-26T02:47:01.161Z,21.60
2018-04-26T02:49:28.627Z,25.30
2018-04-26T02:51:56.118Z,22.23
2018-04-26T02:54:23.588Z,20.23
2018-04-26T02:56:51.073Z,18.30
2018-04-26T02:59:19.304Z,22.47
2018-04-26T03:01:46.783Z,22.63
2018-04-26T03:04:17.985Z,27.00
2018-04-26T03:06:45.479Z,23.57
2018-04-26T03:09:12.969Z,28.13
2018-04-26T03:11:41.207Z,25.10
2018-04-26T03:14:08.768Z,21.13
2018-04-26T03:16:36.251Z,18.10
2018-04-26T03:19:04.542Z,18.50
2018-04-26T03:21:32.019Z,12.00
2018-04-26T03:23:59.499Z,9.50
2018-04-26T03:26:26.980Z,13.37
2018-04-26T03:28:55.391Z,4.73
2018-04-26T03:31:22.874Z,8.53
2018-04-26T03:33:50.400Z,5.10
2018-04-26T03:36:18.655Z,5.63
2018-04-26T03:38:46.120Z,4.53
2018-04-26T03:41:13.625Z,4.60
2018-04-26T03:43:41.156Z,1.93
2018-04-26T03:46:08.726Z,3.70
2018-04-26T03:48:36.132Z,2.50
2018-04-26T03:51:03.626Z,2.57
2018-04-26T03:53:31.107Z,3.50
2018-04-26T03:55:58.604Z,4.50
2018-04-26T03:58:26.072Z,3.20
2018-04-26T04:01:05.488Z,2.77
2018-04-26T04:03:45.777Z,4.07
2018-04-26T04:06:14.807Z,2.60
2018-04-26T04:08:42.291Z,6.00
2018-04-26T04:11:09.745Z,6.10
2018-04-26T04:13:37.203Z,4.20
2018-04-26T04:16:04.716Z,5.43
2018-04-26T04:18:32.232Z,3.33
2018-04-26T04:20:59.698Z,7.30
2018-04-26T04:23:27.170Z,4.03
2018-04-26T04:25:55.392Z,8.47
2018-04-26T04:28:22.866Z,6.00
2018-04-26T04:30:50.349Z,9.40
2018-04-26T04:33:17.838Z,10.40
2018-04-26T04:35:45.290Z,3.43
2018-04-26T04:38:15.759Z,5.60
2018-04-26T04:40:43.249Z,12.20
2018-04-26T04:43:10.746Z,3.40
2018-04-26T04:45:38.196Z,3.70
2018-04-26T04:48:05.643Z,5.83
2018-04-26T04:50:33.097Z,4.40
2018-04-26T04:53:01.319Z,3.53
2018-04-26T04:55:28.807Z,5.57
2018-04-26T04:57:56.267Z,3.20
2018-04-26T05:00:24.531Z,3.63
2018-04-26T05:02:51.987Z,5.30
2018-04-26T05:05:19.471Z,9.43
2018-04-26T05:07:46.964Z,4.90
2018-04-26T05:10:15.323Z,6.67
2018-04-26T05:12:46.446Z,5.30
2018-04-26T05:15:14.933Z,6.33
2018-04-26T05:17:43.178Z,6.70
2018-04-26T05:20:10.661Z,9.10
2018-04-26T05:22:38.924Z,6.93
2018-04-26T05:25:11.188Z,8.43
2018-04-26T05:27:42.761Z,7.57
2018-04-26T05:30:10.386Z,4.70
2018-04-26T05:32:38.729Z,6.13
2018-04-26T05:35:09.347Z,6.83
2018-04-26T05:37:37.027Z,4.90
2018-04-26T05:40:04.725Z,5.53
2018-04-26T05:42:32.347Z,5.23
2018-04-26T05:45:00.744Z,8.47
2018-04-26T05:47:28.475Z,10.20
2018-04-26T05:49:56.092Z,3.20
2018-04-26T05:52:23.683Z,3.20
2018-04-26T05:54:52.123Z,6.40
2018-04-26T05:57:23.202Z,4.47
2018-04-26T05:59:50.758Z,7.67
2018-04-26T06:02:18.442Z,4.33
2018-04-26T06:04:46.016Z,6.10
2018-04-26T06:07:13.640Z,4.70
2018-04-26T06:09:41.298Z,11.50
2018-04-26T06:12:09.001Z,11.17
2018-04-26T06:14:36.508Z,5.43
2018-04-26T06:17:04.846Z,7.43
2018-04-26T06:19:32.413Z,3.30
2018-04-26T06:21:59.957Z,7.43
2018-04-26T06:24:27.587Z,10.40
2018-04-26T06:26:55.196Z,6.07
2018-04-26T06:29:23.817Z,6.60
2018-04-26T06:31:51.450Z,5.10
2018-04-26T06:34:19.776Z,7.90
2018-04-26T06:36:47.342Z,6.57
2018-04-26T06:39:14.919Z,6.60
2018-04-26T06:41:42.552Z,9.80
2018-04-26T06:44:10.145Z,10.33
2018-04-26T06:46:37.673Z,4.60
2018-04-26T06:49:05.350Z,5.70
2018-04-26T06:51:33.752Z,7.57
2018-04-26T06:54:01.497Z,8.27
2018-04-26T06:56:29.032Z,12.83
2018-04-26T06:58:56.685Z,6.43
2018-04-26T07:01:24.455Z,14.03
2018-04-26T07:03:52.119Z,6.70
2018-04-26T07:06:19.739Z,12.20
2018-04-26T07:08:47.333Z,8.47
2018-04-26T07:11:15.753Z,8.13
2018-04-26T07:13:43.335Z,3.67
2018-04-26T07:16:10.896Z,11.37
2018-04-26T07:18:38.397Z,5.10
2018-04-26T07:21:05.908Z,4.40
2018-04-26T07:23:33.375Z,10.00
2018-04-26T07:26:00.860Z,6.33
2018-04-26T07:28:28.320Z,6.67
2018-04-26T07:30:55.799Z,6.40
2018-04-26T07:33:23.281Z,11.00
2018-04-26T07:35:50.797Z,4.97
2018-04-26T07:38:20.171Z,15.87
2018-04-26T07:40:47.690Z,5.60
2018-04-26T07:43:15.180Z,9.97
2018-04-26T07:45:42.653Z,5.90
2018-04-26T07:48:10.903Z,3.80
2018-04-26T07:50:38.396Z,11.47
2018-04-26T07:53:05.945Z,7.87
2018-04-26T07:55:33.400Z,10.40
2018-04-26T07:58:00.872Z,5.47
2018-04-26T08:00:28.383Z,5.43
2018-04-26T08:02:55.871Z,5.23
2018-04-26T08:05:24.104Z,7.70
2018-04-26T08:07:51.614Z,8.93
2018-04-26T08:10:19.079Z,5.97
2018-04-26T08:12:46.564Z,4.70
2018-04-26T08:15:14.041Z,5.40
2018-04-26T08:17:44.627Z,8.10
2018-04-26T08:20:12.126Z,6.67
2018-04-26T08:22:39.612Z,6.20
2018-04-26T08:25:07.150Z,6.60
2018-04-26T08:27:34.582Z,9.37
2018-04-26T08:30:02.059Z,10.27
2018-04-26T08:32:29.518Z,3.80
2018-04-26T08:34:57.020Z,5.00
2018-04-26T08:37:24.489Z,4.47
2018-04-26T08:39:52.322Z,4.20
2018-04-26T08:42:20.598Z,6.10
2018-04-26T08:44:48.815Z,3.80
2018-04-26T08:47:16.331Z,4.60
2018-04-26T08:49:44.548Z,4.10
2018-04-26T08:52:12.017Z,3.53
2018-04-26T08:54:39.508Z,2.90
2018-04-26T08:57:06.959Z,3.10
2018-04-26T08:59:34.411Z,4.27
2018-04-26T09:02:01.896Z,3.40
2018-04-26T09:04:30.120Z,4.87
2018-04-26T09:06:58.367Z,5.83
2018-04-26T09:09:25.840Z,7.57
2018-04-26T09:11:53.314Z,2.90
2018-04-26T09:14:20.816Z,3.10
2018-04-26T09:16:54.503Z,2.30
2018-04-26T09:19:21.980Z,2.57
2018-04-26T09:21:49.508Z,2.60
2018-04-26T09:24:16.899Z,27.87
2018-04-26T09:26:44.358Z,4.40
2018-04-26T09:29:12.714Z,3.50
2018-04-26T09:31:40.939Z,4.70
2018-04-26T09:34:08.417Z,3.47
2018-04-26T09:36:35.896Z,2.70
2018-04-26T09:39:03.398Z,18.37
2018-04-26T09:41:30.867Z,4.27
2018-04-26T09:43:58.320Z,3.73
2018-04-26T09:46:25.808Z,7.63
2018-04-26T09:48:53.263Z,4.03
2018-04-26T09:51:20.735Z,3.53
2018-04-26T09:53:48.209Z,3.90
2018-04-26T09:56:15.712Z,13.43
2018-04-26T09:58:43.168Z,1.80
2018-04-26T10:01:10.643Z,4.40
2018-04-26T10:03:38.095Z,5.53
2018-04-26T10:09:14.796Z,7.53
2018-04-26T10:11:42.244Z,6.13
2018-04-26T10:14:09.703Z,6.10
2018-04-26T10:16:37.148Z,3.73
2018-04-26T10:19:04.595Z,2.77
2018-04-26T10:21:32.045Z,2.87
2018-04-26T10:23:59.505Z,6.20
2018-04-26T10:26:26.979Z,2.50
2018-04-26T10:28:54.427Z,6.57
2018-04-26T10:31:21.880Z,2.70
2018-04-26T10:33:49.335Z,3.50
2018-04-26T10:36:16.789Z,5.30
2018-04-26T10:38:44.255Z,9.13
2018-04-26T10:41:11.724Z,5.50
2018-04-26T10:43:39.184Z,2.53
2018-04-26T10:46:06.644Z,5.17
2018-04-26T10:48:34.107Z,4.73
2018-04-26T10:51:01.555Z,1.60
2018-04-26T10:53:29.019Z,5.30
2018-04-26T10:55:56.459Z,2.53
2018-04-26T10:58:23.907Z,4.63
2018-04-26T11:00:51.358Z,4.63
2018-04-26T11:03:18.809Z,2.63
2018-04-26T11:05:46.275Z,7.73
2018-04-26T11:08:14.227Z,5.50
2018-04-26T11:10:41.668Z,4.60
2018-04-26T11:13:09.128Z,3.70
2018-04-26T11:15:36.633Z,3.10
2018-04-26T11:18:04.045Z,7.90
2018-04-26T11:20:31.481Z,7.00
2018-04-26T11:22:59.706Z,6.97
2018-04-26T11:25:27.153Z,3.10
2018-04-26T11:27:54.613Z,3.17
2018-04-26T11:30:22.064Z,8.43
2018-04-26T11:32:49.532Z,7.00
2018-04-26T11:35:16.971Z,8.57
2018-04-26T11:37:44.424Z,7.30
2018-04-26T11:40:11.939Z,2.50
2018-04-26T11:42:39.331Z,3.07
2018-04-26T11:45:07.748Z,4.33
2018-04-26T11:47:35.199Z,9.97
2018-04-26T11:50:02.656Z,12.63
2018-04-26T11:52:30.120Z,7.90
2018-04-26T11:54:57.565Z,9.80
2018-04-26T11:57:25.024Z,4.63
2018-04-26T11:59:52.484Z,13.40
2018-04-26T12:02:19.985Z,7.20
2018-04-26T12:04:47.414Z,5.30
2018-04-26T12:07:14.868Z,7.10
2018-04-26T12:09:42.307Z,12.50
2018-04-26T12:12:09.764Z,10.27
2018-04-26T12:14:37.233Z,7.67
2018-04-26T12:17:04.699Z,5.13
2018-04-26T12:19:32.155Z,7.30
2018-04-26T12:21:59.630Z,3.30
2018-04-26T12:24:27.076Z,9.70
2018-04-26T12:26:54.541Z,13.13
2018-04-26T12:29:22.031Z,7.50
2018-04-26T12:31:49.466Z,5.20
2018-04-26T12:34:17.678Z,6.77
2018-04-26T12:36:45.135Z,5.53
2018-04-26T12:39:12.586Z,9.93
2018-04-26T12:41:40.043Z,6.30
2018-04-26T12:44:07.531Z,4.50
2018-04-26T12:46:34.991Z,26.60
2018-04-26T12:49:02.440Z,8.23
2018-04-26T12:51:29.892Z,5.63
2018-04-26T12:53:57.335Z,4.37
2018-04-26T12:56:24.830Z,9.00
2018-04-26T12:58:52.316Z,9.03
2018-04-26T13:01:20.526Z,12.23
2018-04-26T13:03:47.975Z,10.83
2018-04-26T13:06:15.425Z,3.97
2018-04-26T13:08:42.883Z,7.10
2018-04-26T13:11:10.331Z,7.63
2018-04-26T13:13:37.785Z,6.30
2018-04-26T13:16:05.239Z,7.73
2018-04-26T13:18:33.464Z,9.40
2018-04-26T13:21:00.926Z,8.20
2018-04-26T13:23:28.380Z,5.47
2018-04-26T13:25:55.831Z,6.10
2018-04-26T13:28:23.267Z,5.53
2018-04-26T13:30:50.736Z,3.67
2018-04-26T13:33:18.216Z,5.33
2018-04-26T13:35:45.679Z,3.30
2018-04-26T13:38:13.141Z,4.47
2018-04-26T13:40:40.611Z,5.67
2018-04-26T13:43:08.081Z,2.90
2018-04-26T13:45:35.536Z,9.77
2018-04-26T13:48:02.986Z,4.50
2018-04-26T13:50:31.206Z,8.93
2018-04-26T13:52:59.463Z,3.03
2018-04-26T13:55:26.904Z,6.10
2018-04-26T13:57:54.360Z,6.47
2018-04-26T14:00:21.803Z,6.47
2018-04-26T14:02:50.024Z,8.33
2018-04-26T14:05:18.244Z,8.80
2018-04-26T14:07:45.712Z,3.30
2018-04-26T14:10:13.168Z,6.10
2018-04-26T14:12:41.409Z,8.90
2018-04-26T14:15:08.852Z,5.30
2018-04-26T14:17:36.392Z,11.93
2018-04-26T14:20:03.764Z,3.53
2018-04-26T14:22:31.215Z,9.83
2018-04-26T14:24:58.671Z,8.53
2018-04-26T14:27:26.115Z,6.23
2018-04-26T14:29:53.572Z,19.33
2018-04-26T14:32:21.014Z,8.63
2018-04-26T14:34:48.475Z,5.27
2018-04-26T14:37:16.064Z,17.80
2018-04-26T14:39:43.383Z,6.00
2018-04-26T14:42:13.968Z,6.70
2018-04-26T14:44:41.430Z,6.30
2018-04-26T14:47:08.880Z,6.63
2018-04-26T14:49:36.366Z,4.50
2018-04-26T14:52:04.597Z,7.90
2018-04-26T14:54:32.047Z,3.47
2018-04-26T14:56:59.548Z,38.73
2018-04-26T14:59:26.990Z,98.30
2018-04-26T15:01:54.447Z,9.70
2018-04-26T15:04:21.891Z,8.00
2018-04-26T15:06:49.360Z,8.90
2018-04-26T15:09:16.825Z,40.17
2018-04-26T15:11:44.276Z,15.47
2018-04-26T15:14:11.740Z,6.97
2018-04-26T15:16:39.960Z,10.27
2018-04-26T15:19:07.444Z,8.93
2018-04-26T15:21:34.891Z,8.00
2018-04-26T15:24:02.345Z,9.37
2018-04-26T15:26:33.061Z,17.40
2018-04-26T15:29:00.531Z,5.37
2018-04-26T15:31:27.971Z,5.93
2018-04-26T15:33:55.436Z,4.83
2018-04-26T15:36:22.899Z,9.00
2018-04-26T15:38:50.397Z,9.27
2018-04-26T15:41:17.975Z,3.43
2018-04-26T15:43:45.459Z,6.33
2018-04-26T15:46:12.918Z,11.40
2018-04-26T15:48:40.378Z,9.53
2018-04-26T15:51:07.831Z,9.30
2018-04-26T15:54:00.068Z,8.90
2018-04-26T15:56:53.839Z,9.13
2018-04-26T16:02:57.700Z,14.57
2018-04-26T16:05:36.960Z,24.33
2018-04-26T16:08:22.909Z,11.80
2018-04-26T16:11:08.036Z,8.97
2018-04-26T16:13:53.163Z,12.13
2018-04-26T16:16:38.330Z,7.67
2018-04-26T16:19:23.556Z,6.80
2018-04-26T16:22:08.680Z,7.60
2018-04-26T16:24:54.858Z,11.50
2018-04-26T16:27:44.125Z,8.63
2018-04-26T16:30:23.493Z,4.00
2018-04-26T16:36:05.953Z,13.63
2018-04-26T16:38:45.489Z,15.87
2018-04-26T16:41:13.731Z,10.87
2018-04-26T16:43:41.202Z,4.07
2018-04-26T16:46:08.672Z,7.00
2018-04-26T16:48:36.924Z,10.73
2018-04-26T16:51:04.393Z,7.40
2018-04-26T16:53:31.846Z,6.93
2018-04-26T16:56:06.672Z,11.10
2018-04-26T16:58:37.652Z,16.43
2018-04-26T17:01:05.110Z,13.83
2018-04-26T17:03:32.566Z,6.93
2018-04-26T17:06:00.028Z,13.70
2018-04-26T17:08:30.396Z,5.10
2018-04-26T17:10:58.672Z,6.67
2018-04-26T17:13:26.135Z,7.13
2018-04-26T17:15:53.597Z,10.73
2018-04-26T17:18:21.052Z,14.53
2018-04-26T17:20:48.528Z,16.07
2018-04-26T17:23:22.179Z,9.77
2018-04-26T17:25:49.651Z,9.43
2018-04-26T17:28:17.406Z,10.57
2018-04-26T17:30:44.860Z,20.77
2018-04-26T17:33:12.361Z,10.87
2018-04-26T17:35:40.603Z,6.27
2018-04-26T17:38:11.335Z,5.57
2018-04-26T17:40:38.783Z,7.53
2018-04-26T17:43:06.236Z,6.73
2018-04-26T17:45:33.782Z,6.00
2018-04-26T17:48:04.123Z,8.93
2018-04-26T17:50:31.559Z,9.17
2018-04-26T17:52:59.044Z,19.97
2018-04-26T17:55:26.519Z,16.30
2018-04-26T17:57:53.992Z,8.90
2018-04-26T18:00:22.261Z,16.23
2018-04-26T18:02:50.495Z,11.33
2018-04-26T18:05:17.944Z,6.63
2018-04-26T18:07:45.407Z,5.10
2018-04-26T18:10:12.869Z,8.07
2018-04-26T18:12:40.357Z,12.13
2018-04-26T18:15:07.807Z,11.83
2018-04-26T18:17:35.261Z,7.03
2018-04-26T18:20:08.570Z,7.80
2018-04-26T18:22:30.169Z,9.63
2018-04-26T18:24:57.629Z,15.40
2018-04-26T18:27:25.094Z,5.60
2018-04-26T18:29:52.563Z,5.43
2018-04-26T18:32:20.782Z,7.87
2018-04-26T18:34:55.663Z,4.83
2018-04-26T18:37:23.096Z,6.27
2018-04-26T18:39:50.617Z,10.83
2018-04-26T18:42:18.160Z,9.50
2018-04-26T18:44:45.633Z,16.40
2018-04-26T18:47:13.095Z,10.47
2018-04-26T18:49:40.558Z,13.93
2018-04-26T18:52:08.016Z,11.37
2018-04-26T18:54:35.476Z,9.00
2018-04-26T18:57:03.002Z,7.97
2018-04-26T18:59:30.395Z,7.40
2018-04-26T19:02:01.647Z,6.13
2018-04-26T19:04:29.111Z,10.53
2018-04-26T19:06:56.581Z,12.20
2018-04-26T19:09:24.039Z,11.80
2018-04-26T19:11:51.495Z,15.27
2018-04-26T19:14:18.969Z,7.40
2018-04-26T19:16:47.189Z,8.33
2018-04-26T19:19:14.654Z,9.13
2018-04-26T19:21:42.105Z,11.83
2018-04-26T19:24:11.831Z,10.50
2018-04-26T19:26:43.429Z,8.60
2018-04-26T19:29:10.860Z,15.13
2018-04-26T19:31:38.319Z,9.67
2018-04-26T19:34:09.421Z,8.20
2018-04-26T19:36:36.859Z,6.73
2018-04-26T19:39:11.594Z,7.37
2018-04-26T19:41:39.038Z,8.33
2018-04-26T19:44:07.429Z,7.83
2018-04-26T19:46:41.737Z,6.83
2018-04-26T19:49:12.607Z,4.77
2018-04-26T19:51:40.054Z,7.57
2018-04-26T19:54:07.518Z,21.77
2018-04-26T19:56:36.859Z,9.23
2018-04-26T19:59:05.079Z,9.40
2018-04-26T20:01:32.533Z,7.43
2018-04-26T20:03:59.979Z,8.40
2018-04-26T20:06:30.617Z,8.83
2018-04-26T20:08:58.088Z,14.73
2018-04-26T20:11:28.986Z,6.47
2018-04-26T20:13:57.205Z,17.57
2018-04-26T20:16:25.422Z,5.47
2018-04-26T20:18:53.656Z,6.93
2018-04-26T20:21:21.109Z,6.47
2018-04-26T20:23:54.337Z,7.50
2018-04-26T20:26:21.787Z,10.60
2018-04-26T20:28:49.254Z,8.47
2018-04-26T20:31:17.469Z,9.20
2018-04-26T20:33:44.934Z,10.43
2018-04-26T20:36:13.171Z,8.57
2018-04-26T20:38:40.778Z,7.40
2018-04-26T20:41:08.215Z,9.67
2018-04-26T20:43:35.676Z,12.23
2018-04-26T20:46:03.116Z,13.87
2018-04-26T20:48:41.312Z,12.73
2018-04-26T20:51:09.521Z,10.73
2018-04-26T20:53:36.968Z,19.40
2018-04-26T20:56:04.446Z,24.63
2018-04-26T20:58:31.897Z,10.87
2018-04-26T21:00:59.346Z,16.53
2018-04-26T21:03:26.795Z,8.63
2018-04-26T21:05:54.238Z,8.30
2018-04-26T21:08:21.692Z,5.17
2018-04-26T21:10:49.899Z,10.37
2018-04-26T21:13:17.358Z,16.03
2018-04-26T21:15:44.810Z,10.10
2018-04-26T21:18:12.266Z,6.83
2018-04-26T21:20:39.719Z,13.73
2018-04-26T21:23:07.175Z,5.17
2018-04-26T21:25:34.683Z,11.90
2018-04-26T21:28:02.947Z,6.63
2018-04-26T21:30:30.417Z,5.47
2018-04-26T21:32:58.635Z,11.60
2018-04-26T21:35:26.108Z,11.13
2018-04-26T21:37:53.561Z,15.60
2018-04-26T21:40:21.007Z,11.50
2018-04-26T21:42:48.455Z,7.83
2018-04-26T21:45:15.912Z,4.90
2018-04-26T21:47:43.360Z,8.73
2018-04-26T21:50:16.434Z,16.63
2018-04-26T21:52:50.515Z,9.23
2018-04-26T21:55:23.749Z,11.23
2018-04-26T21:57:56.970Z,8.83
2018-04-26T22:00:30.152Z,9.20
2018-04-26T22:02:57.116Z,8.40
2018-04-26T22:05:35.272Z,8.97
2018-04-26T22:08:03.484Z,6.57
2018-04-26T22:10:30.940Z,11.00
2018-04-26T22:12:58.396Z,14.60
2018-04-26T22:15:25.851Z,8.53
2018-04-26T22:17:53.300Z,9.87
2018-04-26T22:20:20.748Z,14.67
2018-04-26T22:22:48.199Z,8.90
2018-04-26T22:25:15.663Z,11.20
2018-04-26T22:27:43.879Z,8.27
2018-04-26T22:30:11.335Z,7.63
2018-04-26T22:32:38.779Z,11.40
2018-04-26T22:35:06.232Z,10.27
2018-04-26T22:37:33.674Z,8.57
2018-04-26T22:40:01.129Z,6.67
2018-04-26T22:42:28.614Z,13.00
2018-04-26T22:44:56.056Z,10.33
2018-04-26T22:47:23.562Z,8.63
2018-04-26T22:49:50.962Z,11.33
2018-04-26T22:52:18.403Z,9.00
2018-04-26T22:54:45.860Z,6.20
2018-04-26T22:57:13.320Z,14.27
2018-04-26T22:59:40.772Z,8.97
2018-04-26T23:02:08.223Z,9.00
2018-04-26T23:04:35.684Z,6.90
2018-04-26T23:07:03.135Z,7.73
2018-04-26T23:09:30.593Z,7.80
2018-04-26T23:11:58.044Z,6.73
2018-04-26T23:14:25.506Z,4.53
2018-04-26T23:16:52.967Z,7.80
2018-04-26T23:19:20.420Z,5.33
2018-04-26T23:21:47.864Z,8.43
2018-04-26T23:24:16.076Z,10.53
2018-04-26T23:26:43.528Z,4.83
2018-04-26T23:29:10.976Z,6.23
2018-04-26T23:31:38.432Z,8.97
2018-04-26T23:34:05.880Z,6.70
2018-04-26T23:36:33.338Z,7.00
2018-04-26T23:39:00.784Z,7.60
2018-04-26T23:41:28.241Z,13.37
2018-04-26T23:43:55.692Z,6.77
2018-04-26T23:46:23.146Z,6.90
2018-04-26T23:48:50.595Z,6.10
2018-04-26T23:51:18.823Z,6.23
2018-04-26T23:53:46.269Z,10.87
2018-04-26T23:56:13.721Z,5.93
2018-04-26T23:58:41.180Z,11.30
